Time;durP1;ratioP1;P1;durP2;ratioP2;P2;SDS_P1;SDS_P2;PMS_P1;PMS_P2;Temp;Humidity;BMP_temperature;BMP_pressure;BME280_temperature;BME280_humidity;BME280_pressure;Samples;Min_cycle;Max_cycle;Signal;HPM_P1;HPM_P2
2022/08/15 00:01:08;;;;;;;10.00;8.90;;;;;;;22.50;70.73;100116.81;5224375;28;20561;-68
2022/08/15 00:03:46;;;;;;;10.15;8.68;;;;;;;22.55;69.67;100108.03;5223699;28;20038;-68
2022/08/15 00:06:31;;;;;;;10.75;9.15;;;;;;;22.46;70.98;100110.13;5220072;28;20032;-68
2022/08/15 00:09:06;;;;;;;12.70;9.95;;;;;;;22.37;72.28;100105.97;5243748;28;20042;-67
2022/08/15 00:11:41;;;;;;;10.73;9.02;;;;;;;22.37;75.27;100110.56;5247035;28;20022;-68
2022/08/15 00:14:17;;;;;;;11.30;9.02;;;;;;;22.38;74.50;100120.38;5246854;28;20081;-68
2022/08/15 00:16:49;;;;;;;10.05;9.05;;;;;;;22.33;72.91;100122.91;5211431;28;20122;-67
2022/08/15 00:19:25;;;;;;;10.80;9.70;;;;;;;22.35;71.20;100116.22;5216532;28;20034;-67
2022/08/15 00:22:01;;;;;;;10.77;9.68;;;;;;;22.38;70.20;100121.25;5232721;28;20041;-68
2022/08/15 00:24:35;;;;;;;11.10;9.25;;;;;;;22.25;74.79;100119.38;5243162;28;20037;-68
2022/08/15 00:27:07;;;;;;;11.02;9.77;;;;;;;22.31;76.81;100123.13;5252947;28;20030;-68
2022/08/15 00:29:39;;;;;;;10.65;9.18;;;;;;;22.22;74.06;100121.66;5216733;28;20026;-68
2022/08/15 00:32:16;;;;;;;10.52;9.48;;;;;;;22.17;72.78;100122.28;5219724;28;20030;-68
2022/08/15 00:34:47;;;;;;;10.55;9.55;;;;;;;22.10;76.01;100121.47;5221037;28;20061;-67
2022/08/15 00:37:18;;;;;;;14.82;10.90;;;;;;;22.07;75.89;100119.16;5242943;28;20121;-68
2022/08/15 00:39:50;;;;;;;11.75;10.55;;;;;;;22.12;73.85;100113.94;5245761;28;20044;-68
2022/08/15 00:42:23;;;;;;;10.75;9.65;;;;;;;22.07;70.77;100105.56;5239607;28;20115;-68
2022/08/15 00:44:56;;;;;;;13.32;10.13;;;;;;;22.08;68.89;100115.41;5215748;28;20045;-68
2022/08/15 00:47:28;;;;;;;12.68;9.90;;;;;;;22.13;65.91;100111.00;5227741;28;20064;-68
2022/08/15 00:49:59;;;;;;;10.25;8.80;;;;;;;22.21;63.97;100120.81;5244085;28;20030;-68
2022/08/15 00:52:34;;;;;;;9.82;8.82;;;;;;;22.22;63.54;100125.19;5257495;28;20630;-68
2022/08/15 00:55:10;;;;;;;9.95;8.35;;;;;;;22.24;62.44;100120.38;5240864;28;20068;-67
2022/08/15 00:57:45;;;;;;;9.13;7.90;;;;;;;22.23;62.96;100113.28;5214190;28;20460;-67
2022/08/15 01:00:25;;;;;;;9.30;7.50;;;;;;;22.29;60.89;100122.50;5221547;28;21281;-67
2022/08/15 01:03:00;;;;;;;11.48;6.85;;;;;;;22.26;59.96;100126.50;5222316;28;20038;-67
2022/08/15 01:05:31;;;;;;;12.15;5.93;;;;;;;22.25;59.42;100126.69;5228515;28;20019;-67
2022/08/15 01:08:03;;;;;;;6.93;5.55;;;;;;;22.29;57.80;100120.63;5232996;28;20040;-68
2022/08/15 01:10:34;;;;;;;7.35;5.22;;;;;;;22.22;60.66;100114.31;5233351;28;20606;-68
2022/08/15 01:13:06;;;;;;;6.75;4.95;;;;;;;22.28;56.60;100115.38;5227862;28;20148;-68
2022/08/15 01:15:37;;;;;;;6.43;4.28;;;;;;;22.28;56.44;100115.38;5222409;28;20080;-68
2022/08/15 01:18:09;;;;;;;5.35;4.30;;;;;;;22.26;55.74;100109.34;5251772;28;20050;-67
2022/08/15 01:20:43;;;;;;;9.43;4.43;;;;;;;22.22;56.21;100106.16;5217480;28;20069;-68
2022/08/15 01:23:36;;;;;;;7.13;3.60;;;;;;;22.24;56.34;100114.13;5200637;28;20509;-68
2022/08/15 01:26:08;;;;;;;5.88;4.07;;;;;;;22.18;56.92;100115.78;5215445;28;20036;-68
2022/08/15 01:28:43;;;;;;;5.10;3.92;;;;;;;22.09;57.91;100111.63;5206250;28;20045;-68
2022/08/15 01:31:20;;;;;;;6.80;3.58;;;;;;;22.07;56.43;100121.88;5246267;28;20034;-68
2022/08/15 01:33:54;;;;;;;5.57;3.80;;;;;;;22.11;56.13;100114.97;5214508;28;20386;-68
2022/08/15 01:36:29;;;;;;;4.47;3.70;;;;;;;22.05;62.17;100113.09;5228127;28;20023;-68
2022/08/15 01:39:18;;;;;;;7.50;3.63;;;;;;;22.02;56.21;100108.09;5223848;28;20086;-68
2022/08/15 01:42:00;;;;;;;5.72;3.28;;;;;;;21.89;57.37;100108.94;5213104;28;20040;-67
2022/08/15 01:44:37;;;;;;;5.80;3.25;;;;;;;21.71;61.04;100110.41;5208207;28;20102;-67
2022/08/15 01:47:25;;;;;;;4.95;3.10;;;;;;;21.76;60.44;100114.38;5207101;28;20218;-68
2022/08/15 01:50:07;;;;;;;3.83;2.97;;;;;;;21.70;58.74;100129.63;5235609;28;20114;-67
2022/08/15 01:52:45;;;;;;;6.72;3.28;;;;;;;21.64;59.27;100125.84;5216385;28;20030;-68
2022/08/15 01:55:20;;;;;;;6.22;3.05;;;;;;;21.57;57.04;100118.75;5228926;28;20495;-67
2022/08/15 01:57:52;;;;;;;6.90;2.90;;;;;;;21.53;60.19;100115.59;5226400;28;20078;-67
2022/08/15 02:00:23;;;;;;;7.45;3.15;;;;;;;21.51;65.53;100109.53;5208202;28;20345;-67
2022/08/15 02:02:55;;;;;;;4.03;3.15;;;;;;;21.30;58.84;100111.34;5208387;28;20086;-68
2022/08/15 02:05:26;;;;;;;6.55;3.10;;;;;;;21.24;62.89;100114.06;5208608;28;20525;-67
2022/08/15 02:07:58;;;;;;;3.78;2.90;;;;;;;21.15;62.36;100108.84;5209239;28;20036;-67
2022/08/15 02:10:29;;;;;;;4.15;2.53;;;;;;;21.08;62.87;100113.41;5210859;28;20517;-68
2022/08/15 02:13:01;;;;;;;7.85;3.33;;;;;;;21.16;58.00;100112.38;5217262;28;20054;-67
2022/08/15 02:15:33;;;;;;;6.60;2.80;;;;;;;21.03;62.66;100115.88;5206985;28;20034;-67
2022/08/15 02:18:04;;;;;;;5.75;3.17;;;;;;;21.06;65.45;100112.78;5205167;28;20030;-68
2022/08/15 02:20:36;;;;;;;4.90;2.80;;;;;;;21.09;62.53;100111.53;5224817;28;20034;-68
2022/08/15 02:23:08;;;;;;;6.53;3.10;;;;;;;21.05;68.36;100118.41;5207128;28;20116;-67
2022/08/15 02:25:39;;;;;;;6.43;2.83;;;;;;;20.96;59.30;100109.63;5208954;28;20030;-67
2022/08/15 02:28:11;;;;;;;5.90;3.28;;;;;;;20.97;61.29;100115.88;5205753;28;20057;-68
2022/08/15 02:30:42;;;;;;;6.00;3.13;;;;;;;20.92;58.61;100111.91;5206381;28;20075;-68
2022/08/15 02:33:13;;;;;;;4.43;3.20;;;;;;;20.82;63.59;100103.28;5210117;28;20112;-67
2022/08/15 02:35:45;;;;;;;6.00;3.13;;;;;;;20.80;60.84;100118.09;5204615;28;20030;-68
2022/08/15 02:38:17;;;;;;;7.32;3.50;;;;;;;20.74;65.09;100112.44;5236655;28;20553;-67
2022/08/15 02:40:50;;;;;;;4.45;3.13;;;;;;;20.82;61.75;100111.44;5206469;28;20111;-68
2022/08/15 02:43:22;;;;;;;5.15;2.97;;;;;;;20.74;61.08;100117.03;5212169;28;20509;-68
2022/08/15 02:45:53;;;;;;;4.30;3.40;;;;;;;20.77;60.28;100116.66;5202816;28;20108;-67
2022/08/15 02:48:25;;;;;;;5.20;2.97;;;;;;;20.72;60.75;100119.94;5222552;28;20034;-67
2022/08/15 02:50:56;;;;;;;5.97;2.83;;;;;;;20.73;66.06;100128.94;5219542;28;20108;-67
2022/08/15 02:53:27;;;;;;;5.55;3.30;;;;;;;20.69;62.37;100124.94;5226105;28;20481;-67
2022/08/15 02:55:59;;;;;;;6.90;3.50;;;;;;;20.69;60.27;100131.22;5224292;28;20021;-68
2022/08/15 02:58:30;;;;;;;5.35;3.28;;;;;;;20.72;62.77;100124.53;5219632;28;20025;-68
2022/08/15 03:01:09;;;;;;;5.88;3.00;;;;;;;20.73;62.27;100127.06;5223060;28;20032;-67
2022/08/15 03:03:44;;;;;;;4.20;3.17;;;;;;;20.68;61.79;100128.69;5237604;28;20550;-67
2022/08/15 03:06:26;;;;;;;6.82;2.90;;;;;;;20.63;60.42;100125.75;5241507;28;20024;-67
2022/08/15 03:09:00;;;;;;;4.28;3.17;;;;;;;20.68;66.54;100124.09;5251833;28;20019;-68
2022/08/15 03:11:33;;;;;;;4.85;3.00;;;;;;;20.61;64.60;100128.66;5224555;28;20035;-68
2022/08/15 03:14:17;;;;;;;6.50;3.00;;;;;;;20.53;61.74;100139.63;5242750;28;20072;-68
2022/08/15 03:16:49;;;;;;;6.00;2.92;;;;;;;20.45;63.05;100127.06;5217930;28;20034;-68
2022/08/15 03:19:25;;;;;;;5.47;3.38;;;;;;;20.43;60.62;100134.56;5231845;28;20593;-67
2022/08/15 03:21:56;;;;;;;5.85;3.40;;;;;;;20.33;62.81;100134.09;5223950;28;20037;-68
2022/08/15 03:24:27;;;;;;;8.88;3.35;;;;;;;20.32;63.99;100127.81;5215540;28;21132;-67
2022/08/15 03:26:58;;;;;;;7.10;3.47;;;;;;;20.29;66.08;100125.53;5226621;28;21001;-67
2022/08/15 03:29:30;;;;;;;8.02;3.85;;;;;;;20.29;65.63;100116.56;5206959;28;20022;-67
2022/08/15 03:32:09;;;;;;;5.95;3.72;;;;;;;20.22;65.59;100119.22;5217520;28;20038;-67
2022/08/15 03:34:40;;;;;;;7.38;3.65;;;;;;;20.20;62.56;100124.00;5242222;28;20028;-67
2022/08/15 03:37:12;;;;;;;4.97;3.40;;;;;;;20.12;63.58;100125.00;5244842;28;20045;-67
2022/08/15 03:39:43;;;;;;;4.93;3.50;;;;;;;20.06;65.63;100120.38;5247027;28;20035;-68
2022/08/15 03:42:14;;;;;;;5.55;3.33;;;;;;;20.12;65.13;100121.47;5234822;28;20049;-68
2022/08/15 03:44:46;;;;;;;5.40;3.83;;;;;;;20.04;63.63;100119.75;5234039;28;20078;-67
2022/08/15 03:47:17;;;;;;;6.53;3.75;;;;;;;20.01;66.07;100130.13;5240604;28;20027;-67
2022/08/15 03:49:49;;;;;;;4.82;4.00;;;;;;;20.07;67.89;100123.91;5233899;28;20016;-68
2022/08/15 03:52:21;;;;;;;12.35;4.10;;;;;;;19.84;66.99;100134.97;5248272;28;20430;-68
2022/08/15 03:54:53;;;;;;;7.10;4.68;;;;;;;19.91;67.32;100134.00;5229380;28;20034;-67
2022/08/15 03:57:24;;;;;;;6.70;3.75;;;;;;;19.85;69.44;100136.66;5252425;28;20023;-68
2022/08/15 03:59:56;;;;;;;7.75;4.13;;;;;;;19.78;65.78;100129.31;5257675;28;20043;-67
2022/08/15 04:02:27;;;;;;;5.60;4.20;;;;;;;19.83;65.05;100136.00;5257109;28;20020;-67
2022/08/15 04:04:58;;;;;;;6.90;3.90;;;;;;;19.70;66.46;100140.25;5220153;28;20034;-67
2022/08/15 04:07:32;;;;;;;6.63;3.80;;;;;;;19.79;65.35;100130.16;5240823;28;20035;-67
2022/08/15 04:10:06;;;;;;;5.40;3.90;;;;;;;19.76;67.21;100122.44;5210062;28;20026;-67
2022/08/15 04:12:38;;;;;;;;;;;;;;;19.86;65.84;100125.63;5266159;28;20485;-67
2022/08/15 04:15:15;;;;;;;6.93;4.07;;;;;;;19.74;70.89;100127.19;5239036;28;20654;-67
2022/08/15 04:17:47;;;;;;;6.68;3.92;;;;;;;19.76;71.30;100127.84;5233638;28;20029;-66
2022/08/15 04:20:18;;;;;;;7.43;3.88;;;;;;;19.70;73.36;100134.84;5266670;28;20084;-67
2022/08/15 04:22:50;;;;;;;7.22;3.88;;;;;;;19.65;70.00;100133.75;5217276;28;20030;-67
2022/08/15 04:25:27;;;;;;;5.70;3.63;;;;;;;19.73;72.32;100137.19;5206484;28;20231;-67
2022/08/15 04:28:03;;;;;;;6.30;4.10;;;;;;;19.67;70.90;100135.22;5211324;28;20033;-67
2022/08/15 04:30:37;;;;;;;7.38;3.90;;;;;;;19.72;71.50;100137.38;5211227;28;20026;-67
2022/08/15 04:33:10;;;;;;;6.45;4.07;;;;;;;19.70;70.85;100137.53;5212937;28;20403;-67
2022/08/15 04:35:50;;;;;;;8.95;4.60;;;;;;;19.69;71.09;100143.97;5213589;28;20030;-67
2022/08/15 04:38:21;;;;;;;7.10;4.40;;;;;;;19.73;70.60;100134.50;5212484;28;20033;-67
2022/08/15 04:40:57;;;;;;;6.28;4.25;;;;;;;19.70;72.44;100137.53;5211346;28;20062;-67
2022/08/15 04:43:28;;;;;;;6.97;4.40;;;;;;;19.73;72.25;100141.75;5212336;28;20064;-67
2022/08/15 04:46:01;;;;;;;9.43;4.57;;;;;;;19.79;76.36;100138.28;5212139;28;20030;-67
2022/08/15 04:48:32;;;;;;;7.35;4.47;;;;;;;19.79;75.60;100143.69;5211112;28;20466;-67
2022/08/15 04:51:04;;;;;;;8.45;4.43;;;;;;;19.76;75.21;100134.09;5211770;28;20022;-67
2022/08/15 04:53:37;;;;;;;8.25;4.30;;;;;;;19.86;77.81;100146.44;5212983;28;20042;-67
2022/08/15 04:56:08;;;;;;;8.75;4.55;;;;;;;19.83;75.77;100136.88;5210580;28;20034;-67
2022/08/15 04:58:39;;;;;;;8.73;4.45;;;;;;;19.92;73.38;100140.25;5209544;28;20026;-67
2022/08/15 05:01:12;;;;;;;8.32;4.60;;;;;;;19.99;74.58;100143.84;5210844;28;20046;-67
2022/08/15 05:03:43;;;;;;;7.07;4.68;;;;;;;19.99;74.89;100141.16;5207605;28;20037;-67
2022/08/15 05:06:14;;;;;;;7.15;4.47;;;;;;;20.02;76.56;100148.91;5209750;28;20384;-67
2022/08/15 05:08:45;;;;;;;7.15;4.60;;;;;;;20.01;76.07;100155.31;5207075;28;20372;-67
2022/08/15 05:11:19;;;;;;;7.35;4.30;;;;;;;20.09;74.32;100138.91;5211174;28;20030;-67
2022/08/15 05:13:52;;;;;;;9.50;4.40;;;;;;;20.09;76.99;100135.38;5200487;28;20029;-67
2022/08/15 05:16:23;;;;;;;7.72;4.70;;;;;;;20.11;77.37;100144.97;5208746;28;20032;-67
2022/08/15 05:18:55;;;;;;;7.07;4.38;;;;;;;20.20;77.31;100151.09;5211292;28;20034;-67
2022/08/15 05:21:28;;;;;;;7.57;4.07;;;;;;;20.26;78.41;100155.72;5211831;28;20033;-68
2022/08/15 05:23:59;;;;;;;7.55;4.50;;;;;;;20.21;78.16;100163.59;5209582;28;20087;-67
2022/08/15 05:26:30;;;;;;;9.38;4.45;;;;;;;20.28;75.24;100166.38;5211772;28;20484;-67
2022/08/15 05:29:02;;;;;;;7.22;4.20;;;;;;;20.27;77.51;100164.66;5209023;28;20034;-67
2022/08/15 05:31:34;;;;;;;7.25;4.40;;;;;;;20.30;76.32;100175.13;5202428;28;20031;-68
2022/08/15 05:34:05;;;;;;;8.27;4.88;;;;;;;20.33;75.70;100169.31;5209278;28;20095;-67
2022/08/15 05:36:37;;;;;;;9.38;4.50;;;;;;;20.37;78.84;100176.00;5211496;28;20073;-67
2022/08/15 05:39:21;;;;;;;7.70;4.70;;;;;;;20.31;79.23;100174.94;5209969;28;20038;-67
2022/08/15 05:42:11;;;;;;;8.90;4.95;;;;;;;20.33;78.96;100172.03;5210735;28;20467;-68
2022/08/15 05:44:54;;;;;;;5.70;4.28;;;;;;;20.34;80.14;100173.69;5209522;28;20042;-67
2022/08/15 05:47:36;;;;;;;8.27;4.82;;;;;;;20.41;81.51;100181.88;5206769;28;20030;-67
2022/08/15 05:50:18;;;;;;;7.70;4.63;;;;;;;20.43;80.30;100177.09;5208681;28;20026;-67
2022/08/15 05:53:09;;;;;;;9.45;4.78;;;;;;;20.42;79.68;100170.81;5208371;28;20038;-67
2022/08/15 05:56:03;;;;;;;7.03;4.70;;;;;;;20.47;81.54;100175.66;5205206;28;20046;-67
2022/08/15 05:58:49;;;;;;;7.15;4.38;;;;;;;20.49;78.71;100179.00;5207923;28;20037;-67
2022/08/15 06:01:32;;;;;;;7.63;5.10;;;;;;;20.52;82.89;100174.03;5208973;28;20136;-67
2022/08/15 06:04:07;;;;;;;9.05;4.75;;;;;;;20.54;80.96;100171.13;5207167;28;20546;-67
2022/08/15 06:06:42;;;;;;;8.60;4.88;;;;;;;20.59;78.43;100184.91;5207780;28;20567;-67
2022/08/15 06:09:23;;;;;;;8.30;4.28;;;;;;;20.69;83.12;100184.56;5203742;28;20026;-69
2022/08/15 06:11:57;;;;;;;8.75;4.30;;;;;;;20.63;81.94;100188.09;5211420;28;20038;-68
2022/08/15 06:14:33;;;;;;;8.93;4.45;;;;;;;20.68;79.90;100177.50;5201526;28;20030;-67
2022/08/15 06:17:20;;;;;;;6.50;4.18;;;;;;;20.79;79.28;100189.63;5207101;28;20029;-68
2022/08/15 06:19:52;;;;;;;6.72;4.40;;;;;;;20.80;78.40;100191.31;5203146;28;20042;-67
2022/08/15 06:23:05;;;;;;;11.70;4.35;;;;;;;20.91;78.82;100190.75;5205751;28;21840;-67
2022/08/15 06:26:01;;;;;;;8.50;4.38;;;;;;;21.01;78.62;100196.63;5205176;28;20030;-67
2022/08/15 06:28:52;;;;;;;9.77;4.15;;;;;;;21.10;79.56;100192.69;5203727;28;20026;-67
2022/08/15 06:31:39;;;;;;;7.65;4.43;;;;;;;21.18;77.19;100185.44;5208523;28;20435;-67
2022/08/15 06:34:37;;;;;;;7.47;4.20;;;;;;;21.28;77.20;100194.00;5206341;28;20094;-67
2022/08/15 06:37:32;;;;;;;9.25;4.15;;;;;;;21.39;79.59;100187.16;5208095;28;20197;-67
2022/08/15 06:40:12;;;;;;;;;;;;;;;21.48;77.16;100183.25;5207410;28;20025;-68
2022/08/15 06:42:45;;;;;;;6.13;4.40;;;;;;;21.47;77.90;100185.13;5208790;28;19921;-67
2022/08/15 06:45:21;;;;;;;6.63;4.57;;;;;;;21.49;78.83;100184.91;5208328;28;20479;-69
2022/08/15 06:47:59;;;;;;;6.80;3.95;;;;;;;21.51;78.08;100188.25;5207570;28;20034;-68
2022/08/15 06:50:37;;;;;;;7.65;4.18;;;;;;;21.56;77.75;100193.94;5207419;28;20484;-67
2022/08/15 06:53:34;;;;;;;6.72;4.32;;;;;;;21.66;77.88;100194.34;5206525;28;20447;-67
2022/08/15 06:56:27;;;;;;;8.30;4.65;;;;;;;21.64;78.51;100196.44;5210725;28;20086;-67
2022/08/15 06:59:24;;;;;;;6.47;4.10;;;;;;;21.83;77.18;100202.13;5202805;28;20399;-68
2022/08/15 07:02:05;;;;;;;6.88;4.60;;;;;;;21.78;77.41;100201.88;5209518;28;20467;-67
2022/08/15 07:04:52;;;;;;;5.88;4.00;;;;;;;21.84;76.94;100203.78;5200553;28;20467;-68
2022/08/15 07:07:50;;;;;;;7.63;4.88;;;;;;;22.03;77.31;100191.25;5203629;28;20038;-68
2022/08/15 07:10:42;;;;;;;8.25;5.25;;;;;;;22.13;76.08;100187.09;5204442;28;20086;-67
2022/08/15 07:13:19;;;;;;;6.13;4.50;;;;;;;22.20;74.98;100191.66;5205766;28;20044;-68
2022/08/15 07:16:26;;;;;;;9.32;4.53;;;;;;;22.42;74.65;100195.03;5202467;28;20871;-68
2022/08/15 07:18:59;;;;;;;8.75;4.88;;;;;;;22.41;76.11;100190.63;5206147;28;20149;-68
2022/08/15 07:21:31;;;;;;;;;;;;;;;22.52;74.52;100193.53;5202911;28;20038;-68
2022/08/15 07:24:05;;;;;;;9.87;4.70;;;;;;;22.41;74.16;100186.03;5208209;28;19943;-65
2022/08/15 07:26:45;;;;;;;8.23;4.68;;;;;;;22.43;75.98;100192.09;5211448;28;20292;-65
2022/08/15 07:29:26;;;;;;;8.95;5.00;;;;;;;22.47;75.42;100182.47;5205034;28;20094;-69
2022/08/15 07:32:44;;;;;;;8.55;5.18;;;;;;;22.57;74.61;100187.50;5206467;28;20036;-69
2022/08/15 07:35:22;;;;;;;8.00;5.68;;;;;;;22.58;74.22;100180.16;5206935;28;20653;-69
2022/08/15 07:37:58;;;;;;;7.68;5.50;;;;;;;22.62;74.82;100181.41;5206708;28;20575;-69
2022/08/15 07:40:49;;;;;;;14.27;5.75;;;;;;;22.80;73.98;100184.28;5208343;28;20141;-68
2022/08/15 07:43:28;;;;;;;14.57;6.00;;;;;;;22.80;74.46;100189.72;5207781;28;20295;-69
2022/08/15 07:46:19;;;;;;;19.80;6.82;;;;;;;22.86;73.61;100188.03;5207800;28;20055;-69
2022/08/15 07:48:58;;;;;;;10.68;6.22;;;;;;;22.84;74.82;100196.41;5212600;28;20038;-69
2022/08/15 07:51:39;;;;;;;9.57;5.80;;;;;;;22.92;74.25;100195.34;5196371;28;20495;-68
2022/08/15 07:54:23;;;;;;;9.68;5.97;;;;;;;22.96;72.65;100193.03;5204311;28;20053;-69
2022/08/15 07:56:59;;;;;;;10.32;6.07;;;;;;;22.82;73.39;100194.94;5208073;28;20043;-68
2022/08/15 07:59:35;;;;;;;9.10;6.38;;;;;;;22.87;73.38;100200.56;5205532;28;20080;-68
2022/08/15 08:02:19;;;;;;;8.82;5.93;;;;;;;22.98;73.88;100207.25;5204594;28;20045;-68
2022/08/15 08:04:51;;;;;;;;;;;;;;;23.10;73.14;100205.53;5197994;28;20075;-69
2022/08/15 08:07:36;;;;;;;7.53;5.75;;;;;;;23.06;73.12;100207.84;5204138;28;20204;-69
2022/08/15 08:10:31;;;;;;;10.82;5.60;;;;;;;23.25;73.40;100211.53;5207005;28;20022;-68
2022/08/15 08:13:20;;;;;;;8.38;5.65;;;;;;;23.32;74.06;100207.94;5205738;28;20036;-69
2022/08/15 08:16:16;;;;;;;7.30;5.40;;;;;;;23.48;72.36;100205.56;5205211;28;20033;-68
2022/08/15 08:18:59;;;;;;;9.35;5.93;;;;;;;23.45;71.57;100207.88;5203083;28;20765;-68
2022/08/15 08:21:49;;;;;;;13.25;5.75;;;;;;;23.60;71.19;100208.41;5209369;28;20470;-69
2022/08/15 08:25:05;;;;;;;8.57;5.50;;;;;;;23.79;70.52;100212.09;5205016;28;20037;-69
2022/08/15 08:28:06;;;;;;;8.77;5.70;;;;;;;23.84;71.46;100208.75;5200703;28;20090;-69
2022/08/15 08:31:02;;;;;;;7.15;5.30;;;;;;;23.98;71.44;100220.38;5211550;28;20044;-69
2022/08/15 08:33:59;;;;;;;8.65;5.15;;;;;;;23.95;71.63;100223.53;5200838;28;20077;-69
2022/08/15 08:36:55;;;;;;;10.55;5.38;;;;;;;23.92;72.12;100221.25;5203789;28;20026;-69
2022/08/15 08:39:42;;;;;;;13.70;5.40;;;;;;;24.05;70.12;100213.81;5206294;28;21240;-69
2022/08/15 08:42:33;;;;;;;12.30;5.65;;;;;;;24.02;71.63;100216.97;5199929;28;20034;-69
2022/08/15 08:45:14;;;;;;;12.45;6.00;;;;;;;23.94;71.16;100214.53;5206991;28;20030;-69
2022/08/15 08:48:11;;;;;;;17.17;6.20;;;;;;;23.85;71.37;100215.84;5209035;28;20038;-69
2022/08/15 08:50:54;;;;;;;15.77;6.55;;;;;;;23.84;71.89;100214.19;5207942;28;20388;-69
2022/08/15 08:53:52;;;;;;;10.48;5.30;;;;;;;23.79;70.91;100214.00;5202743;28;20083;-68
2022/08/15 08:56:28;;;;;;;17.27;5.93;;;;;;;23.67;70.56;100214.66;5219137;28;20041;-68
2022/08/15 08:59:23;;;;;;;10.05;5.53;;;;;;;23.74;69.92;100211.06;5206700;28;20417;-68
2022/08/15 09:02:10;;;;;;;9.93;5.80;;;;;;;23.67;71.75;100220.13;5208655;28;20115;-68
2022/08/15 09:04:46;;;;;;;7.35;6.10;;;;;;;23.68;71.13;100224.53;5203203;28;20036;-68
2022/08/15 09:07:30;;;;;;;9.85;6.03;;;;;;;23.58;71.36;100232.31;5205745;28;20090;-68
2022/08/15 09:10:06;;;;;;;;;;;;;;;23.80;70.45;100223.88;5207537;28;20038;-68
2022/08/15 09:15:38;;;;;;;7.72;5.80;;;;;;;23.49;72.75;100237.19;5206092;28;20061;-68
2022/08/15 09:18:34;;;;;;;8.98;6.28;;;;;;;23.60;72.90;100240.28;5206819;28;20038;-68
2022/08/15 09:21:05;;;;;;;9.13;5.95;;;;;;;23.68;71.21;100238.16;5207584;28;20025;-69
2022/08/15 09:23:42;;;;;;;9.77;5.65;;;;;;;23.82;72.53;100238.09;5203726;28;20036;-68
2022/08/15 09:26:18;;;;;;;8.13;5.63;;;;;;;23.88;73.95;100238.03;5206430;28;20022;-68
2022/08/15 09:29:25;;;;;;;9.05;5.70;;;;;;;24.13;71.57;100239.13;5207776;28;20118;-68
2022/08/15 09:32:18;;;;;;;8.13;5.78;;;;;;;24.26;71.71;100237.13;5209425;28;20128;-68
2022/08/15 09:35:23;;;;;;;11.68;6.32;;;;;;;24.33;70.47;100234.31;5204294;28;20030;-68
2022/08/15 09:38:00;;;;;;;11.65;5.82;;;;;;;24.40;69.97;100240.56;5206789;28;20034;-68
2022/08/15 09:40:49;;;;;;;9.18;5.80;;;;;;;24.42;69.57;100238.44;5206602;28;20072;-68
2022/08/15 09:43:52;;;;;;;9.25;6.40;;;;;;;24.50;69.76;100239.22;5204692;28;20058;-68
2022/08/15 09:46:41;;;;;;;11.30;6.18;;;;;;;24.44;70.08;100233.59;5205505;28;20029;-68
2022/08/15 09:49:32;;;;;;;11.07;7.03;;;;;;;24.68;70.67;100233.84;5203640;28;20060;-68
2022/08/15 09:52:03;;;;;;;8.75;6.30;;;;;;;24.79;68.49;100235.81;5207054;28;20083;-68
2022/08/15 09:54:45;;;;;;;7.97;5.90;;;;;;;25.06;69.63;100232.78;5207519;28;20034;-68
2022/08/15 09:57:38;;;;;;;11.13;6.10;;;;;;;25.24;68.93;100240.19;5204916;28;20299;-69
2022/08/15 10:00:16;;;;;;;10.38;6.10;;;;;;;25.24;68.09;100234.72;5205709;28;20026;-69
2022/08/15 10:02:58;;;;;;;8.77;5.85;;;;;;;25.39;67.37;100246.06;5204882;28;20128;-69
2022/08/15 10:05:59;;;;;;;7.00;5.80;;;;;;;25.37;65.64;100242.75;5205501;28;20116;-68
2022/08/15 10:08:54;;;;;;;7.78;6.35;;;;;;;25.53;67.46;100238.53;5205986;28;20030;-68
2022/08/15 10:11:41;;;;;;;9.13;5.43;;;;;;;25.62;67.23;100245.34;5207257;28;20429;-68
2022/08/15 10:14:21;;;;;;;11.73;7.25;;;;;;;25.64;66.42;100236.91;5210509;28;20097;-68
2022/08/15 10:16:55;;;;;;;10.95;6.57;;;;;;;25.62;66.62;100237.16;5206844;28;20037;-68
2022/08/15 10:19:27;;;;;;;8.70;5.93;;;;;;;25.71;66.88;100240.38;5203056;28;20033;-68
2022/08/15 10:22:03;;;;;;;10.18;6.38;;;;;;;25.77;66.80;100233.13;5207518;28;20038;-68
2022/08/15 10:24:38;;;;;;;7.20;5.80;;;;;;;25.73;64.64;100245.59;5209982;28;20042;-68
2022/08/15 10:27:17;;;;;;;10.30;5.95;;;;;;;25.87;66.89;100241.63;5206380;28;21105;-68
2022/08/15 10:30:08;;;;;;;8.70;5.40;;;;;;;25.77;63.32;100233.13;5201957;28;20202;-68
2022/08/15 10:32:41;;;;;;;7.88;5.55;;;;;;;25.92;64.17;100240.94;5205450;28;20045;-69
2022/08/15 10:35:31;;;;;;;9.73;5.43;;;;;;;26.04;64.00;100241.78;5206461;28;20026;-69
2022/08/15 10:38:07;;;;;;;11.18;5.75;;;;;;;25.84;64.38;100236.63;5202170;28;20095;-68
2022/08/15 10:41:03;;;;;;;12.02;5.82;;;;;;;25.92;65.21;100239.03;5204257;28;20030;-68
2022/08/15 10:43:54;;;;;;;10.13;5.35;;;;;;;25.97;65.55;100250.13;5197476;28;20482;-68
2022/08/15 10:46:51;;;;;;;8.52;5.40;;;;;;;25.96;65.14;100253.91;5201417;28;20117;-66
2022/08/15 10:49:39;;;;;;;8.40;4.97;;;;;;;25.89;65.64;100247.69;5205937;28;20502;-68
2022/08/15 10:52:24;;;;;;;8.40;5.22;;;;;;;25.73;65.35;100254.63;5203380;28;20090;-68
2022/08/15 10:55:19;;;;;;;7.72;5.72;;;;;;;25.80;63.72;100257.28;5209673;28;20029;-68
2022/08/15 10:57:55;;;;;;;7.55;5.22;;;;;;;25.66;66.26;100258.53;5210552;28;20464;-68
2022/08/15 11:00:51;;;;;;;7.40;5.28;;;;;;;25.66;65.27;100259.38;5203809;28;20550;-68
2022/08/15 11:03:38;;;;;;;10.27;5.60;;;;;;;25.48;64.78;100251.22;5202818;28;20033;-68
2022/08/15 11:06:13;;;;;;;6.95;4.70;;;;;;;25.48;66.42;100253.94;5212106;28;20040;-68
2022/08/15 11:08:55;;;;;;;6.43;4.93;;;;;;;25.31;65.50;100254.56;5203294;28;20037;-68
2022/08/15 11:11:32;;;;;;;7.47;5.65;;;;;;;25.42;67.80;100247.50;5203911;28;20041;-69
2022/08/15 11:14:16;;;;;;;7.05;5.57;;;;;;;25.30;69.60;100252.09;5203582;28;20026;-68
2022/08/15 11:16:51;;;;;;;8.45;5.50;;;;;;;25.31;68.25;100253.72;5205074;28;20113;-69
2022/08/15 11:19:37;;;;;;;8.35;5.35;;;;;;;25.22;67.98;100251.31;5196436;28;20708;-69
2022/08/15 11:22:18;;;;;;;8.93;5.13;;;;;;;25.11;67.50;100253.94;5202537;28;20118;-68
2022/08/15 11:25:00;;;;;;;7.35;5.32;;;;;;;25.07;66.40;100250.00;5200397;28;20032;-69
2022/08/15 11:27:31;;;;;;;9.63;5.50;;;;;;;25.10;68.25;100250.38;5203367;28;20033;-68
2022/08/15 11:30:06;;;;;;;9.68;5.68;;;;;;;25.20;68.26;100249.84;5199118;28;20476;-68
2022/08/15 11:32:38;;;;;;;9.70;4.97;;;;;;;25.14;64.98;100246.16;5203561;28;20072;-68
2022/08/15 11:35:28;;;;;;;8.52;5.07;;;;;;;25.22;67.25;100253.19;5201541;28;20033;-68
2022/08/15 11:38:00;;;;;;;8.45;5.22;;;;;;;25.23;68.22;100242.06;5203124;28;20045;-68
2022/08/15 11:40:37;;;;;;;8.57;5.22;;;;;;;25.34;66.48;100256.00;5202187;28;20084;-68
2022/08/15 11:43:15;;;;;;;8.82;5.50;;;;;;;25.46;64.57;100256.06;5201803;28;20058;-69
2022/08/15 11:45:49;;;;;;;12.10;5.28;;;;;;;25.47;63.86;100250.38;5202224;28;21137;-68
2022/08/15 11:48:36;;;;;;;8.65;5.10;;;;;;;25.77;64.91;100257.72;5205553;28;20173;-68
2022/08/15 11:51:22;;;;;;;7.80;5.40;;;;;;;25.77;63.02;100263.19;5204022;28;20036;-68
2022/08/15 11:54:11;;;;;;;6.32;4.65;;;;;;;26.00;64.58;100257.84;5202273;28;20033;-69
2022/08/15 11:56:59;;;;;;;8.50;5.22;;;;;;;25.97;63.36;100249.28;5202140;28;20040;-68
2022/08/15 11:59:33;;;;;;;11.15;5.20;;;;;;;25.83;60.83;100257.66;5199865;28;20026;-69
2022/08/15 12:02:07;;;;;;;7.95;5.25;;;;;;;26.02;60.62;100257.59;5204436;28;20061;-68
2022/08/15 12:04:42;;;;;;;6.70;5.15;;;;;;;26.11;62.07;100260.84;5205282;28;20108;-68
2022/08/15 12:07:27;;;;;;;6.53;4.68;;;;;;;26.43;62.92;100257.81;5205985;28;20021;-69
2022/08/15 12:10:06;;;;;;;7.85;5.03;;;;;;;26.33;62.90;100261.09;5208359;28;20033;-69
2022/08/15 12:12:38;;;;;;;8.65;5.53;;;;;;;26.49;59.68;100260.41;5207120;28;20040;-69
2022/08/15 12:15:19;;;;;;;7.50;5.13;;;;;;;26.37;60.79;100265.88;5205736;28;20026;-69
2022/08/15 12:18:07;;;;;;;6.68;4.97;;;;;;;26.50;60.96;100269.44;5203353;28;20767;-69
2022/08/15 12:20:46;;;;;;;7.57;4.78;;;;;;;26.38;60.38;100270.28;5210163;28;20485;-69
2022/08/15 12:23:30;;;;;;;7.75;5.03;;;;;;;26.38;61.79;100267.53;5206948;28;20034;-68